Time;durP1;ratioP1;P1;durP2;ratioP2;P2;SDS_P1;SDS_P2;PMS_P1;PMS_P2;Temp;Humidity;BMP_temperature;BMP_pressure;BME280_temperature;BME280_humidity;BME280_pressure;Samples;Min_cycle;Max_cycle;Signal;HPM_P1;HPM_P2
2024/01/03 00:00:46;;;;;;;17.45;16.25;;;;;;;;;;5033096;28;20441;-43
2024/01/03 00:03:12;;;;;;;20.37;19.07;;;;;;;;;;5034943;28;20178;-44
2024/01/03 00:05:39;;;;;;;19.60;18.30;;;;;;;;;;5033459;28;20498;-44
2024/01/03 00:08:06;;;;;;;19.50;18.20;;;;;;;;;;5033473;28;20409;-44
2024/01/03 00:10:51;;;;;;;17.52;16.35;;;;;;;;;;5030894;28;20201;-44
2024/01/03 00:13:35;;;;;;;14.82;13.73;;;;;;;;;;5031140;28;20196;-44
2024/01/03 00:16:03;;;;;;;21.20;19.80;;;;;;;;;;5035687;28;20210;-43
2024/01/03 00:18:35;;;;;;;20.55;18.98;;;;;;;;;;5034592;28;20174;-44
2024/01/03 00:21:02;;;;;;;15.70;14.60;;;;;;;;;;5034753;28;20191;-44
2024/01/03 00:23:33;;;;;;;13.93;13.02;;;;;;;;;;5034844;28;20176;-44
2024/01/03 00:25:59;;;;;;;12.68;11.68;;;;;;;;;;5034595;28;20185;-44
2024/01/03 00:28:25;;;;;;;12.97;11.97;;;;;;;;;;5034462;28;20179;-46
2024/01/03 00:30:51;;;;;;;13.70;12.70;;;;;;;;;;5036878;28;20485;-45
2024/01/03 00:33:18;;;;;;;10.77;9.87;;;;;;;;;;5035327;28;20815;-43
2024/01/03 00:35:44;;;;;;;12.88;11.88;;;;;;;;;;5034449;28;20410;-45
2024/01/03 00:38:11;;;;;;;12.32;11.32;;;;;;;;;;5040924;28;20178;-44
2024/01/03 00:40:52;;;;;;;11.75;10.75;;;;;;;;;;5042345;28;20192;-44
2024/01/03 00:43:17;;;;;;;11.27;10.38;;;;;;;;;;5034312;28;20193;-44
2024/01/03 00:45:44;;;;;;;13.23;12.20;;;;;;;;;;5034213;28;20525;-44
2024/01/03 00:48:10;;;;;;;11.93;10.93;;;;;;;;;;5032965;28;20429;-44
2024/01/03 00:50:36;;;;;;;10.18;9.48;;;;;;;;;;5037518;28;20277;-44
2024/01/03 00:53:02;;;;;;;12.17;11.27;;;;;;;;;;5037502;28;20250;-44
2024/01/03 00:55:28;;;;;;;13.93;12.93;;;;;;;;;;5041500;28;20429;-44
2024/01/03 00:57:55;;;;;;;11.33;10.43;;;;;;;;;;5034183;28;20422;-44
2024/01/03 01:00:21;;;;;;;12.77;11.82;;;;;;;;;;5037039;28;20452;-43
2024/01/03 01:02:47;;;;;;;11.27;10.38;;;;;;;;;;5038807;28;20177;-44
2024/01/03 01:05:14;;;;;;;11.30;10.40;;;;;;;;;;5040359;28;20182;-44
2024/01/03 01:07:39;;;;;;;13.10;12.05;;;;;;;;;;5039513;28;20509;-43
2024/01/03 01:10:06;;;;;;;11.20;10.30;;;;;;;;;;5035703;28;20273;-44
2024/01/03 01:12:32;;;;;;;10.32;9.45;;;;;;;;;;5034071;28;20481;-44
2024/01/03 01:15:01;;;;;;;11.07;10.17;;;;;;;;;;5036797;28;20234;-44
2024/01/03 01:17:27;;;;;;;10.52;9.63;;;;;;;;;;5033767;28;20438;-45
2024/01/03 01:19:53;;;;;;;9.95;9.10;;;;;;;;;;5039776;28;20610;-47
2024/01/03 01:22:19;;;;;;;10.60;9.70;;;;;;;;;;5041498;28;20219;-44
2024/01/03 01:24:45;;;;;;;9.05;8.25;;;;;;;;;;5033582;28;20426;-44
2024/01/03 01:27:11;;;;;;;10.00;9.10;;;;;;;;;;5031692;28;20179;-44
2024/01/03 01:29:37;;;;;;;10.20;9.30;;;;;;;;;;5035193;28;20195;-43
2024/01/03 01:32:03;;;;;;;11.63;10.63;;;;;;;;;;5036037;28;20252;-44
2024/01/03 01:34:29;;;;;;;10.57;9.68;;;;;;;;;;5040185;28;20441;-44
2024/01/03 01:36:55;;;;;;;10.73;9.83;;;;;;;;;;5041295;28;20227;-43
2024/01/03 01:39:21;;;;;;;9.10;8.30;;;;;;;;;;5033263;28;20410;-45
2024/01/03 01:41:47;;;;;;;11.00;10.13;;;;;;;;;;5036487;28;20411;-45
2024/01/03 01:44:13;;;;;;;9.57;8.70;;;;;;;;;;5037721;28;20470;-46
2024/01/03 01:46:40;;;;;;;8.40;7.70;;;;;;;;;;5033294;28;20410;-46
2024/01/03 01:49:06;;;;;;;11.40;10.35;;;;;;;;;;5032833;28;20504;-44
2024/01/03 01:51:33;;;;;;;9.45;8.63;;;;;;;;;;5033004;28;20413;-43
2024/01/03 01:53:59;;;;;;;9.90;9.05;;;;;;;;;;5033084;28;20179;-44
2024/01/03 01:56:25;;;;;;;9.57;8.75;;;;;;;;;;5035978;28;20178;-44
2024/01/03 01:58:51;;;;;;;10.40;9.50;;;;;;;;;;5037131;28;20282;-44
2024/01/03 02:01:17;;;;;;;12.50;11.50;;;;;;;;;;5038833;28;20460;-44
2024/01/03 02:03:44;;;;;;;13.88;12.68;;;;;;;;;;5036975;28;20185;-44
2024/01/03 02:06:10;;;;;;;12.82;11.82;;;;;;;;;;5033941;28;20237;-44
2024/01/03 02:08:36;;;;;;;15.07;13.75;;;;;;;;;;5032738;28;20609;-44
2024/01/03 02:11:04;;;;;;;10.18;9.40;;;;;;;;;;5035315;28;20191;-44
2024/01/03 02:13:30;;;;;;;14.32;13.07;;;;;;;;;;5037236;28;20206;-43
2024/01/03 02:15:56;;;;;;;13.30;12.30;;;;;;;;;;5038858;28;20538;-44
2024/01/03 02:18:22;;;;;;;11.60;10.70;;;;;;;;;;5024178;28;20402;-44
2024/01/03 02:20:48;;;;;;;12.63;11.63;;;;;;;;;;5032424;28;20203;-45
2024/01/03 02:23:14;;;;;;;12.52;11.52;;;;;;;;;;5035276;28;20648;-44
2024/01/03 02:25:40;;;;;;;10.87;9.97;;;;;;;;;;5032323;28;20290;-45
2024/01/03 02:28:10;;;;;;;13.57;12.43;;;;;;;;;;5032352;28;20402;-44
2024/01/03 02:30:37;;;;;;;9.88;9.13;;;;;;;;;;5038138;28;20566;-46
2024/01/03 02:33:03;;;;;;;11.93;11.02;;;;;;;;;;5039912;28;20171;-45
2024/01/03 02:35:29;;;;;;;9.25;8.45;;;;;;;;;;5032168;28;20178;-44
2024/01/03 02:37:55;;;;;;;8.30;7.60;;;;;;;;;;5034509;28;20214;-46
2024/01/03 02:40:20;;;;;;;11.43;10.53;;;;;;;;;;5036251;28;20223;-46
2024/01/03 02:42:46;;;;;;;9.50;8.70;;;;;;;;;;5037059;28;20409;-44
2024/01/03 02:45:12;;;;;;;9.90;9.00;;;;;;;;;;5035025;28;20406;-43
2024/01/03 02:47:38;;;;;;;10.80;9.87;;;;;;;;;;5037980;28;20495;-43
2024/01/03 02:50:05;;;;;;;12.07;11.07;;;;;;;;;;5031728;28;20438;-44
2024/01/03 02:52:31;;;;;;;10.02;9.13;;;;;;;;;;5031960;28;20834;-43
2024/01/03 02:54:57;;;;;;;9.90;9.20;;;;;;;;;;5031956;28;20580;-43
2024/01/03 02:57:25;;;;;;;9.90;9.10;;;;;;;;;;5023951;28;20705;-44
2024/01/03 02:59:51;;;;;;;10.48;9.68;;;;;;;;;;5038356;28;20535;-43
2024/01/03 03:02:17;;;;;;;10.95;10.05;;;;;;;;;;5032373;28;20219;-44
2024/01/03 03:04:43;;;;;;;9.70;8.90;;;;;;;;;;5032641;28;20207;-44
2024/01/03 03:07:09;;;;;;;11.15;10.20;;;;;;;;;;5033872;28;20411;-44
2024/01/03 03:09:35;;;;;;;8.97;8.17;;;;;;;;;;5035944;28;20253;-44
2024/01/03 03:12:01;;;;;;;9.57;8.67;;;;;;;;;;5037522;28;20454;-46
2024/01/03 03:14:27;;;;;;;7.85;7.18;;;;;;;;;;5039295;28;20406;-45
2024/01/03 03:16:53;;;;;;;10.13;9.20;;;;;;;;;;5025574;28;20175;-44
2024/01/03 03:19:19;;;;;;;9.80;9.00;;;;;;;;;;5031194;28;20466;-43
2024/01/03 03:21:45;;;;;;;11.33;10.40;;;;;;;;;;5031579;28;20563;-44
2024/01/03 03:24:11;;;;;;;12.50;11.43;;;;;;;;;;5031152;28;20421;-44
2024/01/03 03:26:37;;;;;;;9.43;8.73;;;;;;;;;;5031456;28;20512;-44
2024/01/03 03:29:03;;;;;;;11.60;10.60;;;;;;;;;;5034461;28;20437;-44
2024/01/03 03:31:29;;;;;;;10.63;9.80;;;;;;;;;;5051390;28;20455;-44
2024/01/03 03:33:55;;;;;;;12.43;11.40;;;;;;;;;;5031904;28;20402;-45
2024/01/03 03:36:21;;;;;;;13.17;12.17;;;;;;;;;;5046948;28;20171;-46
2024/01/03 03:38:47;;;;;;;11.68;10.82;;;;;;;;;;5039991;28;20489;-44
2024/01/03 03:41:13;;;;;;;14.07;13.07;;;;;;;;;;5038552;28;20186;-46
2024/01/03 03:43:40;;;;;;;13.80;12.80;;;;;;;;;;5048366;28;20505;-44
2024/01/03 03:46:10;;;;;;;13.48;12.43;;;;;;;;;;5031472;28;20886;-45
2024/01/03 03:48:36;;;;;;;18.02;16.58;;;;;;;;;;5031566;28;20178;-44
2024/01/03 03:51:03;;;;;;;13.65;12.65;;;;;;;;;;5049822;28;20194;-45
2024/01/03 03:53:29;;;;;;;12.13;11.23;;;;;;;;;;5043870;28;20602;-44
2024/01/03 03:55:55;;;;;;;17.87;16.67;;;;;;;;;;5042594;28;20167;-44
2024/01/03 03:58:21;;;;;;;17.40;16.17;;;;;;;;;;5051634;28;20782;-47
2024/01/03 04:00:47;;;;;;;16.73;15.52;;;;;;;;;;5035234;28;20921;-45
2024/01/03 04:03:13;;;;;;;16.37;15.30;;;;;;;;;;5054289;28;20183;-43
2024/01/03 04:05:39;;;;;;;15.03;13.97;;;;;;;;;;5039955;28;20425;-43
2024/01/03 04:08:05;;;;;;;15.25;14.15;;;;;;;;;;5045949;28;20416;-43
2024/01/03 04:10:31;;;;;;;18.27;17.02;;;;;;;;;;5047868;28;20207;-43
2024/01/03 04:12:57;;;;;;;19.47;17.97;;;;;;;;;;5031049;28;20211;-45
2024/01/03 04:15:24;;;;;;;17.38;16.17;;;;;;;;;;5034694;28;20417;-43
2024/01/03 04:17:50;;;;;;;13.77;12.85;;;;;;;;;;5034809;28;20545;-47
2024/01/03 04:20:16;;;;;;;17.77;16.63;;;;;;;;;;5034374;28;20241;-44
2024/01/03 04:22:43;;;;;;;19.42;18.10;;;;;;;;;;5034999;28;20179;-43
2024/01/03 04:25:10;;;;;;;17.92;16.73;;;;;;;;;;5032903;28;20185;-43
2024/01/03 04:27:36;;;;;;;17.52;16.33;;;;;;;;;;5034701;28;20678;-44
2024/01/03 04:30:02;;;;;;;19.52;18.25;;;;;;;;;;5034163;28;20199;-43
2024/01/03 04:32:28;;;;;;;16.02;14.93;;;;;;;;;;5034437;28;20248;-44
2024/01/03 04:34:54;;;;;;;15.80;14.70;;;;;;;;;;5034516;28;20705;-43
2024/01/03 04:37:20;;;;;;;15.07;13.97;;;;;;;;;;5034290;28;20545;-45
2024/01/03 04:39:45;;;;;;;14.57;13.60;;;;;;;;;;5034115;28;20438;-43
2024/01/03 04:42:11;;;;;;;15.37;14.20;;;;;;;;;;5034212;28;20418;-44
2024/01/03 04:44:37;;;;;;;15.93;14.83;;;;;;;;;;5034235;28;20418;-43
2024/01/03 04:47:04;;;;;;;18.93;17.57;;;;;;;;;;5034288;28;20975;-43
2024/01/03 04:49:30;;;;;;;17.10;15.88;;;;;;;;;;5033932;28;20426;-42
2024/01/03 04:51:56;;;;;;;15.53;14.40;;;;;;;;;;5034185;28;20245;-43
2024/01/03 04:54:22;;;;;;;15.48;14.48;;;;;;;;;;5025970;28;20395;-43
2024/01/03 04:56:48;;;;;;;15.83;14.73;;;;;;;;;;5034024;28;20176;-43
2024/01/03 04:59:14;;;;;;;18.15;16.88;;;;;;;;;;5033593;28;20520;-43
2024/01/03 05:01:42;;;;;;;13.73;12.73;;;;;;;;;;5033270;28;20188;-44
2024/01/03 05:04:07;;;;;;;16.35;15.18;;;;;;;;;;5033822;28;20414;-46
2024/01/03 05:06:34;;;;;;;15.13;14.03;;;;;;;;;;5034655;28;20183;-43
2024/01/03 05:09:00;;;;;;;16.02;14.93;;;;;;;;;;5035651;28;20945;-43
2024/01/03 05:11:25;;;;;;;15.43;14.33;;;;;;;;;;5033696;28;20203;-43
2024/01/03 05:13:51;;;;;;;16.20;15.00;;;;;;;;;;5033852;28;20772;-43
2024/01/03 05:16:18;;;;;;;15.70;14.70;;;;;;;;;;5033689;28;20839;-43
2024/01/03 05:18:44;;;;;;;16.20;15.00;;;;;;;;;;5046640;28;20397;-44
2024/01/03 05:21:10;;;;;;;13.50;12.60;;;;;;;;;;5044603;28;20544;-43
2024/01/03 05:23:36;;;;;;;15.97;14.80;;;;;;;;;;5038618;28;20463;-43
2024/01/03 05:26:02;;;;;;;19.08;17.67;;;;;;;;;;5052550;28;20401;-44
2024/01/03 05:28:28;;;;;;;21.33;19.60;;;;;;;;;;5033740;28;20179;-45
2024/01/03 05:30:54;;;;;;;16.33;15.23;;;;;;;;;;5028218;28;20457;-42
2024/01/03 05:33:19;;;;;;;17.67;16.40;;;;;;;;;;5034569;28;20500;-43
2024/01/03 05:35:45;;;;;;;17.30;16.07;;;;;;;;;;5041953;28;20833;-43
2024/01/03 05:38:11;;;;;;;17.03;15.73;;;;;;;;;;5043778;28;20418;-43
2024/01/03 05:40:37;;;;;;;18.17;16.97;;;;;;;;;;5052655;28;20500;-42
2024/01/03 05:43:04;;;;;;;16.63;15.43;;;;;;;;;;5033523;28;20417;-43
2024/01/03 05:45:29;;;;;;;17.33;16.13;;;;;;;;;;5049680;28;20451;-43
2024/01/03 05:47:56;;;;;;;20.17;18.87;;;;;;;;;;5041492;28;20180;-44
2024/01/03 05:50:22;;;;;;;20.00;18.63;;;;;;;;;;5041671;28;20422;-45
2024/01/03 05:52:48;;;;;;;16.95;15.88;;;;;;;;;;5048970;28;20222;-45
2024/01/03 05:55:15;;;;;;;17.60;16.40;;;;;;;;;;5033426;28;20536;-45
2024/01/03 05:57:41;;;;;;;15.40;14.40;;;;;;;;;;5053005;28;20821;-45
2024/01/03 06:00:07;;;;;;;15.43;14.33;;;;;;;;;;5036810;28;20248;-45
2024/01/03 06:02:33;;;;;;;16.63;15.52;;;;;;;;;;5044821;28;20453;-45
2024/01/03 06:04:59;;;;;;;17.25;16.05;;;;;;;;;;5045064;28;20183;-45
2024/01/03 06:07:25;;;;;;;15.00;14.00;;;;;;;;;;5036344;28;20181;-45
2024/01/03 06:09:51;;;;;;;15.10;14.03;;;;;;;;;;5052577;28;20470;-45
2024/01/03 06:12:17;;;;;;;13.15;12.15;;;;;;;;;;5032998;28;20469;-44
2024/01/03 06:14:43;;;;;;;12.27;11.43;;;;;;;;;;5048135;28;20178;-45
2024/01/03 06:17:09;;;;;;;13.30;12.33;;;;;;;;;;5041384;28;20500;-45
2024/01/03 06:19:35;;;;;;;12.45;11.48;;;;;;;;;;5039390;28;20421;-45
2024/01/03 06:22:01;;;;;;;13.67;12.67;;;;;;;;;;5049423;28;20186;-45
2024/01/03 06:24:27;;;;;;;12.57;11.57;;;;;;;;;;5032599;28;20469;-45
2024/01/03 06:26:53;;;;;;;13.50;12.50;;;;;;;;;;5037627;28;20418;-45
2024/01/03 06:29:19;;;;;;;11.60;10.70;;;;;;;;;;5047208;28;20993;-45
2024/01/03 06:31:45;;;;;;;13.93;12.90;;;;;;;;;;5041513;28;20520;-45
2024/01/03 06:34:11;;;;;;;12.77;11.77;;;;;;;;;;5039216;28;20496;-45
2024/01/03 06:36:37;;;;;;;13.13;12.13;;;;;;;;;;5049699;28;20424;-45
2024/01/03 06:39:03;;;;;;;14.53;13.30;;;;;;;;;;5032199;28;20426;-45
2024/01/03 06:41:28;;;;;;;12.13;11.10;;;;;;;;;;5050413;28;20773;-45
2024/01/03 06:43:54;;;;;;;11.80;10.80;;;;;;;;;;5037819;28;20177;-45
2024/01/03 06:46:20;;;;;;;10.23;9.33;;;;;;;;;;5042247;28;20970;-45
2024/01/03 06:48:46;;;;;;;10.17;9.30;;;;;;;;;;5045651;28;20842;-46
2024/01/03 06:51:12;;;;;;;9.77;8.87;;;;;;;;;;5033935;28;20818;-45
2024/01/03 06:53:39;;;;;;;9.03;8.23;;;;;;;;;;5052016;28;20747;-46
2024/01/03 06:56:05;;;;;;;10.25;9.35;;;;;;;;;;5029209;28;20430;-45
2024/01/03 06:58:31;;;;;;;14.88;13.40;;;;;;;;;;5031380;28;20169;-45
2024/01/03 07:00:57;;;;;;;8.88;8.07;;;;;;;;;;5031739;28;20210;-45
2024/01/03 07:03:23;;;;;;;11.15;10.18;;;;;;;;;;5031524;28;20253;-45
2024/01/03 07:05:49;;;;;;;11.23;10.23;;;;;;;;;;5032641;28;20276;-45
2024/01/03 07:08:15;;;;;;;9.73;8.87;;;;;;;;;;5032620;28;20420;-46
2024/01/03 07:10:41;;;;;;;7.40;6.67;;;;;;;;;;5031586;28;20503;-45
2024/01/03 07:13:07;;;;;;;8.95;8.13;;;;;;;;;;5031569;28;20517;-45
2024/01/03 07:15:33;;;;;;;9.10;8.23;;;;;;;;;;5031575;28;20596;-45
2024/01/03 07:18:00;;;;;;;7.88;7.07;;;;;;;;;;5031528;28;20824;-46
2024/01/03 07:20:26;;;;;;;8.40;7.60;;;;;;;;;;5031255;28;20537;-46
2024/01/03 07:22:52;;;;;;;6.97;6.35;;;;;;;;;;5031844;28;20186;-46
2024/01/03 07:25:18;;;;;;;6.60;5.80;;;;;;;;;;5030937;28;20183;-45
2024/01/03 07:27:45;;;;;;;7.28;6.53;;;;;;;;;;5031477;28;20960;-46
2024/01/03 07:30:11;;;;;;;8.50;7.70;;;;;;;;;;5031128;28;20789;-46
2024/01/03 07:32:37;;;;;;;9.25;8.35;;;;;;;;;;5031278;28;20239;-46
2024/01/03 07:35:04;;;;;;;10.20;9.23;;;;;;;;;;5031370;28;20202;-46
2024/01/03 07:37:30;;;;;;;8.65;7.82;;;;;;;;;;5031463;28;20164;-45
2024/01/03 07:39:56;;;;;;;8.73;7.93;;;;;;;;;;5031235;28;20690;-46
2024/01/03 07:42:22;;;;;;;9.37;8.57;;;;;;;;;;5031435;28;20189;-46
2024/01/03 07:44:48;;;;;;;9.67;8.80;;;;;;;;;;5031346;28;20425;-46
2024/01/03 07:47:14;;;;;;;10.67;9.70;;;;;;;;;;5031188;28;20547;-46
2024/01/03 07:49:42;;;;;;;6.57;5.93;;;;;;;;;;5031046;28;20434;-45
2024/01/03 07:52:08;;;;;;;7.60;6.90;;;;;;;;;;5031153;28;20568;-46
2024/01/03 07:54:34;;;;;;;10.07;9.07;;;;;;;;;;5031293;28;20278;-45
2024/01/03 07:57:04;;;;;;;7.60;6.78;;;;;;;;;;5031347;28;20909;-45
2024/01/03 07:59:30;;;;;;;9.82;8.93;;;;;;;;;;5030752;28;20294;-45
2024/01/03 08:01:56;;;;;;;6.93;6.23;;;;;;;;;;5031257;28;20593;-45
2024/01/03 08:04:22;;;;;;;9.27;8.43;;;;;;;;;;5031034;28;20410;-45
2024/01/03 08:06:48;;;;;;;8.70;7.90;;;;;;;;;;5031217;28;20421;-46
2024/01/03 08:09:14;;;;;;;8.70;7.90;;;;;;;;;;5030785;28;20437;-45
2024/01/03 08:11:40;;;;;;;10.43;9.53;;;;;;;;;;5031110;28;20207;-45
2024/01/03 08:14:06;;;;;;;10.93;9.93;;;;;;;;;;5030924;28;20408;-46
2024/01/03 08:16:32;;;;;;;10.37;9.47;;;;;;;;;;5031572;28;20926;-44
2024/01/03 08:18:58;;;;;;;10.17;9.33;;;;;;;;;;5030731;28;20434;-44
2024/01/03 08:21:24;;;;;;;10.87;9.90;;;;;;;;;;5031056;28;20468;-45
2024/01/03 08:23:50;;;;;;;10.60;9.60;;;;;;;;;;5031011;28;20422;-45
2024/01/03 08:26:16;;;;;;;10.40;9.50;;;;;;;;;;5030932;28;20418;-45
2024/01/03 08:28:42;;;;;;;11.10;10.10;;;;;;;;;;5030712;28;20513;-44
2024/01/03 08:31:17;;;;;;;10.20;9.30;;;;;;;;;;5030774;28;20413;-46
2024/01/03 08:33:44;;;;;;;9.48;8.73;;;;;;;;;;5030864;28;20207;-45
2024/01/03 08:36:14;;;;;;;9.15;8.35;;;;;;;;;;5030918;28;20176;-45
2024/01/03 08:38:40;;;;;;;10.77;9.88;;;;;;;;;;5034170;28;20175;-45
2024/01/03 08:41:16;;;;;;;11.13;10.13;;;;;;;;;;5034356;28;20186;-45
2024/01/03 08:43:42;;;;;;;11.10;10.20;;;;;;;;;;5033080;28;20724;-45
2024/01/03 08:46:08;;;;;;;10.77;9.82;;;;;;;;;;5034330;28;20211;-45
2024/01/03 08:48:34;;;;;;;17.90;16.40;;;;;;;;;;5033938;28;20230;-45
2024/01/03 08:51:00;;;;;;;12.77;11.77;;;;;;;;;;5034149;28;20410;-45
2024/01/03 08:53:26;;;;;;;10.63;9.70;;;;;;;;;;5034244;28;20179;-45
2024/01/03 08:55:52;;;;;;;10.10;9.10;;;;;;;;;;5034092;28;20813;-45
2024/01/03 08:58:19;;;;;;;7.73;6.93;;;;;;;;;;5033903;28;20441;-45
2024/01/03 09:00:45;;;;;;;9.32;8.43;;;;;;;;;;5034116;28;20442;-45
2024/01/03 09:03:11;;;;;;;9.47;8.57;;;;;;;;;;5033948;28;20599;-45
2024/01/03 09:05:37;;;;;;;8.27;7.38;;;;;;;;;;5033964;28;20418;-45
2024/01/03 09:08:03;;;;;;;11.60;10.53;;;;;;;;;;5033873;28;20183;-45
2024/01/03 09:10:29;;;;;;;10.32;9.52;;;;;;;;;;5033444;28;20430;-46
2024/01/03 09:12:55;;;;;;;13.45;12.05;;;;;;;;;;5033997;28;20615;-45
2024/01/03 09:15:21;;;;;;;11.45;10.55;;;;;;;;;;5033864;28;20159;-45
2024/01/03 09:17:47;;;;;;;8.90;8.10;;;;;;;;;;5033936;28;20183;-46
2024/01/03 09:20:13;;;;;;;11.07;10.17;;;;;;;;;;5033448;28;20572;-46
2024/01/03 09:22:39;;;;;;;11.18;10.18;;;;;;;;;;5033629;28;20418;-45
2024/01/03 09:25:06;;;;;;;12.02;11.15;;;;;;;;;;5033360;28;20190;-46
2024/01/03 09:27:32;;;;;;;10.90;10.00;;;;;;;;;;5033503;28;20171;-45
2024/01/03 09:29:58;;;;;;;10.37;9.47;;;;;;;;;;5033195;28;20188;-45
2024/01/03 09:32:23;;;;;;;12.90;11.90;;;;;;;;;;5033673;28;20454;-45
2024/01/03 09:34:49;;;;;;;12.43;11.50;;;;;;;;;;5033394;28;20198;-45
2024/01/03 09:37:16;;;;;;;12.10;11.07;;;;;;;;;;5029068;28;20417;-45
2024/01/03 09:39:42;;;;;;;10.90;9.93;;;;;;;;;;5032676;28;20634;-45
2024/01/03 09:42:08;;;;;;;10.37;9.40;;;;;;;;;;5033000;28;20557;-45
2024/01/03 09:44:35;;;;;;;11.77;10.80;;;;;;;;;;5033306;28;20419;-45
2024/01/03 09:47:01;;;;;;;9.65;8.80;;;;;;;;;;5032963;28;20190;-45
2024/01/03 09:49:27;;;;;;;10.40;9.57;;;;;;;;;;5032611;28;20241;-45
2024/01/03 09:51:56;;;;;;;9.02;8.23;;;;;;;;;;5032932;28;20278;-46
2024/01/03 09:54:22;;;;;;;10.85;9.98;;;;;;;;;;5032637;28;20636;-45
2024/01/03 09:56:47;;;;;;;10.30;9.47;;;;;;;;;;5032855;28;20250;-45
2024/01/03 09:59:17;;;;;;;13.27;12.30;;;;;;;;;;5032422;28;20454;-45
2024/01/03 10:01:53;;;;;;;13.77;12.75;;;;;;;;;;5032771;28;20414;-45
2024/01/03 10:04:19;;;;;;;12.63;11.70;;;;;;;;;;5032546;28;20266;-45
2024/01/03 10:06:51;;;;;;;18.00;16.80;;;;;;;;;;5032588;28;20266;-45
2024/01/03 10:09:17;;;;;;;13.98;12.98;;;;;;;;;;5032335;28;20488;-45
2024/01/03 10:11:43;;;;;;;13.00;12.00;;;;;;;;;;5032650;28;20199;-45
2024/01/03 10:14:17;;;;;;;10.52;9.57;;;;;;;;;;5030884;28;20403;-46
2024/01/03 10:16:46;;;;;;;11.50;10.60;;;;;;;;;;5032510;28;20217;-45
2024/01/03 10:19:16;;;;;;;12.02;11.02;;;;;;;;;;5031940;28;20583;-46
2024/01/03 10:21:49;;;;;;;10.57;9.63;;;;;;;;;;5032437;28;20540;-45
2024/01/03 10:24:16;;;;;;;11.68;10.68;;;;;;;;;;5032179;28;20179;-45
2024/01/03 10:26:42;;;;;;;11.55;10.73;;;;;;;;;;5032297;28;20182;-45
2024/01/03 10:29:09;;;;;;;9.82;9.05;;;;;;;;;;5050696;28;20190;-45
2024/01/03 10:31:35;;;;;;;14.93;13.80;;;;;;;;;;5050189;28;20210;-45
2024/01/03 10:34:01;;;;;;;13.40;12.40;;;;;;;;;;5041172;28;20175;-46
2024/01/03 10:36:28;;;;;;;13.18;12.20;;;;;;;;;;5038776;28;20693;-45
2024/01/03 10:38:55;;;;;;;13.00;12.00;;;;;;;;;;5049250;28;20210;-46
2024/01/03 10:41:21;;;;;;;13.70;12.68;;;;;;;;;;5032394;28;20183;-45
2024/01/03 10:43:48;;;;;;;18.45;17.10;;;;;;;;;;5050680;28;20280;-45
2024/01/03 10:46:15;;;;;;;13.40;12.47;;;;;;;;;;5037030;28;20237;-46
2024/01/03 10:48:41;;;;;;;16.70;15.55;;;;;;;;;;5042221;28;20413;-45
2024/01/03 10:51:10;;;;;;;13.20;12.20;;;;;;;;;;5045372;28;20272;-45
2024/01/03 10:53:42;;;;;;;17.38;16.15;;;;;;;;;;5034745;28;20446;-45
2024/01/03 10:56:10;;;;;;;15.60;14.55;;;;;;;;;;5051928;28;20159;-45
2024/01/03 10:58:39;;;;;;;20.80;19.15;;;;;;;;;;5031663;28;20176;-45
2024/01/03 11:01:19;;;;;;;20.15;18.85;;;;;;;;;;5047367;28;20626;-45
2024/01/03 11:04:09;;;;;;;22.02;20.63;;;;;;;;;;5037554;28;20258;-45
2024/01/03 11:07:04;;;;;;;24.43;22.90;;;;;;;;;;5043615;28;20627;-45
2024/01/03 11:09:31;;;;;;;24.27;22.77;;;;;;;;;;5033542;28;20448;-46
2024/01/03 11:12:10;;;;;;;22.83;21.33;;;;;;;;;;5040460;28;20285;-45
2024/01/03 11:14:36;;;;;;;22.03;20.53;;;;;;;;;;5044785;28;20471;-45
2024/01/03 11:17:03;;;;;;;20.00;18.60;;;;;;;;;;5034250;28;20407;-45
2024/01/03 11:19:31;;;;;;;18.20;16.93;;;;;;;;;;5051351;28;20417;-45
2024/01/03 11:22:04;;;;;;;21.08;19.70;;;;;;;;;;5032657;28;20413;-45
2024/01/03 11:24:33;;;;;;;18.97;17.77;;;;;;;;;;5047238;28;20180;-44
2024/01/03 11:27:03;;;;;;;20.03;18.73;;;;;;;;;;5048789;28;20420;-45
2024/01/03 11:29:35;;;;;;;17.40;16.30;;;;;;;;;;5042650;28;20430;-45
2024/01/03 11:32:05;;;;;;;18.92;17.63;;;;;;;;;;5025357;28;20200;-45
2024/01/03 11:34:37;;;;;;;27.90;25.48;;;;;;;;;;5031261;28;20655;-45
2024/01/03 11:37:04;;;;;;;18.97;17.53;;;;;;;;;;5051141;28;20167;-45
2024/01/03 11:39:36;;;;;;;19.97;18.40;;;;;;;;;;5030960;28;20922;-45
2024/01/03 11:42:03;;;;;;;20.67;19.08;;;;;;;;;;5045015;28;20445;-45
2024/01/03 11:44:29;;;;;;;16.23;15.10;;;;;;;;;;5039917;28;20188;-45
2024/01/03 11:47:03;;;;;;;19.65;18.13;;;;;;;;;;5037514;28;20532;-45
2024/01/03 11:49:29;;;;;;;14.60;13.50;;;;;;;;;;5047304;28;20731;-45
2024/01/03 11:51:58;;;;;;;11.53;10.63;;;;;;;;;;5011838;28;20288;-45
2024/01/03 11:54:24;;;;;;;13.55;12.55;;;;;;;;;;5011772;28;20411;-45
2024/01/03 11:56:50;;;;;;;12.15;11.15;;;;;;;;;;5044836;28;20210;-45
2024/01/03 11:59:23;;;;;;;13.02;12.02;;;;;;;;;;5038569;28;20212;-45
2024/01/03 12:01:56;;;;;;;13.37;12.27;;;;;;;;;;5040012;28;20191;-45
2024/01/03 12:04:22;;;;;;;13.07;12.07;;;;;;;;;;5045312;28;20893;-45
2024/01/03 12:06:48;;;;;;;14.47;13.37;;;;;;;;;;5032920;28;20190;-45
2024/01/03 12:09:15;;;;;;;13.27;12.27;;;;;;;;;;5051034;28;20471;-45
2024/01/03 12:11:41;;;;;;;13.55;12.55;;;;;;;;;;5035654;28;20192;-45
2024/01/03 12:14:07;;;;;;;15.23;14.13;;;;;;;;;;5048383;28;20175;-45
2024/01/03 12:16:33;;;;;;;17.48;16.27;;;;;;;;;;5045549;28;20244;-45
2024/01/03 12:18:59;;;;;;;16.57;15.37;;;;;;;;;;5040036;28;20275;-45
2024/01/03 12:21:25;;;;;;;18.55;17.05;;;;;;;;;;5052627;28;20897;-45
2024/01/03 12:23:59;;;;;;;20.10;18.47;;;;;;;;;;5033286;28;20183;-45
2024/01/03 12:26:25;;;;;;;18.30;17.00;;;;;;;;;;5040585;28;20422;-45
2024/01/03 12:28:54;;;;;;;21.35;19.83;;;;;;;;;;5030521;28;20504;-45
2024/01/03 12:31:20;;;;;;;19.60;18.10;;;;;;;;;;5033767;28;20196;-45
2024/01/03 12:33:46;;;;;;;25.37;23.47;;;;;;;;;;5033136;28;20296;-45
2024/01/03 12:36:12;;;;;;;18.87;17.57;;;;;;;;;;5035925;28;20415;-45
2024/01/03 12:38:42;;;;;;;25.08;22.85;;;;;;;;;;5031869;28;20514;-45
2024/01/03 12:41:08;;;;;;;22.52;21.00;;;;;;;;;;5024720;28;20201;-45
2024/01/03 12:43:34;;;;;;;19.87;18.47;;;;;;;;;;5031780;28;20183;-45
2024/01/03 12:46:00;;;;;;;20.73;19.13;;;;;;;;;;5026385;28;20896;-45
2024/01/03 12:48:26;;;;;;;16.27;15.07;;;;;;;;;;5027558;28;20424;-45
2024/01/03 12:50:52;;;;;;;13.95;12.93;;;;;;;;;;5030586;28;20433;-47
2024/01/03 12:53:19;;;;;;;14.60;13.55;;;;;;;;;;5034295;28;20286;-45
2024/01/03 12:55:45;;;;;;;14.57;13.48;;;;;;;;;;5033657;28;20241;-45
2024/01/03 12:58:11;;;;;;;14.05;13.05;;;;;;;;;;5033315;28;20176;-45
2024/01/03 13:00:37;;;;;;;14.02;13.02;;;;;;;;;;5029581;28;20628;-45
2024/01/03 13:03:03;;;;;;;14.17;13.07;;;;;;;;;;5034096;28;20538;-45
2024/01/03 13:05:29;;;;;;;14.77;13.73;;;;;;;;;;5033892;28;20923;-45
2024/01/03 13:07:55;;;;;;;12.30;11.23;;;;;;;;;;5030237;28;20190;-45
2024/01/03 13:10:21;;;;;;;13.13;11.98;;;;;;;;;;5022081;28;20505;-45
2024/01/03 13:12:48;;;;;;;10.55;9.65;;;;;;;;;;5033508;28;20733;-45
2024/01/03 13:15:14;;;;;;;9.38;8.52;;;;;;;;;;5033767;28;20179;-45
2024/01/03 13:17:41;;;;;;;10.53;9.63;;;;;;;;;;5033788;28;20205;-45
2024/01/03 13:20:07;;;;;;;10.60;9.70;;;;;;;;;;5033608;28;20426;-45
2024/01/03 13:22:33;;;;;;;9.40;8.60;;;;;;;;;;5032965;28;20189;-45
2024/01/03 13:24:59;;;;;;;9.03;8.23;;;;;;;;;;5030901;28;20274;-45
2024/01/03 13:27:25;;;;;;;9.93;9.10;;;;;;;;;;5033434;28;20464;-44
2024/01/03 13:29:51;;;;;;;9.40;8.53;;;;;;;;;;5033410;28;20434;-45
2024/01/03 13:32:17;;;;;;;9.65;8.75;;;;;;;;;;5030213;28;20466;-45
2024/01/03 13:34:43;;;;;;;8.87;8.07;;;;;;;;;;5024223;28;20183;-45
2024/01/03 13:37:09;;;;;;;9.05;8.15;;;;;;;;;;5031568;28;20414;-44
2024/01/03 13:39:35;;;;;;;9.07;8.23;;;;;;;;;;5033084;28;20272;-45
2024/01/03 13:42:03;;;;;;;9.40;8.50;;;;;;;;;;5032573;28;20497;-45
2024/01/03 13:44:29;;;;;;;12.57;10.63;;;;;;;;;;5032088;28;20441;-45
2024/01/03 13:46:56;;;;;;;7.03;6.33;;;;;;;;;;5028349;28;20210;-44
2024/01/03 13:49:22;;;;;;;10.73;9.63;;;;;;;;;;5025109;28;20937;-45
2024/01/03 13:51:51;;;;;;;8.53;7.70;;;;;;;;;;5027931;28;20246;-45
2024/01/03 13:54:17;;;;;;;9.15;8.25;;;;;;;;;;5032573;28;20422;-45
2024/01/03 13:56:43;;;;;;;8.73;7.82;;;;;;;;;;5032997;28;20266;-45
2024/01/03 13:59:10;;;;;;;10.83;9.73;;;;;;;;;;5032573;28;20333;-45
2024/01/03 14:01:36;;;;;;;9.52;8.65;;;;;;;;;;5035572;28;20528;-46
2024/01/03 14:04:02;;;;;;;9.57;8.57;;;;;;;;;;5032856;28;20317;-46
2024/01/03 14:06:28;;;;;;;9.23;8.33;;;;;;;;;;5032896;28;20270;-45
2024/01/03 14:08:55;;;;;;;9.30;8.23;;;;;;;;;;5032379;28;20437;-46
2024/01/03 14:11:23;;;;;;;8.32;7.53;;;;;;;;;;5032753;28;20429;-45
2024/01/03 14:13:49;;;;;;;8.52;7.72;;;;;;;;;;5032828;28;20182;-46
2024/01/03 14:16:15;;;;;;;9.33;8.43;;;;;;;;;;5032620;28;20175;-45
2024/01/03 14:18:41;;;;;;;8.67;7.87;;;;;;;;;;5032352;28;20464;-46
2024/01/03 14:21:07;;;;;;;8.23;7.37;;;;;;;;;;5032601;28;20410;-45